sensor_id;sensor_type;location;lat;lon;timestamp;P1;durP1;ratioP1;P2;durP2;ratioP2
6693;SDS011;3384;42.628;23.380;2023-11-18T00:01:23;0.80;;;0.80;;
6693;SDS011;3384;42.628;23.380;2023-11-18T00:03:50;0.60;;;0.60;;
6693;SDS011;3384;42.628;23.380;2023-11-18T00:06:18;0.70;;;0.70;;
6693;SDS011;3384;42.628;23.380;2023-11-18T00:08:46;0.70;;;0.70;;
6693;SDS011;3384;42.628;23.380;2023-11-18T00:11:16;2.10;;;2.10;;
6693;SDS011;3384;42.628;23.380;2023-11-18T00:13:43;0.80;;;0.80;;
6693;SDS011;3384;42.628;23.380;2023-11-18T00:16:12;0.80;;;0.80;;
6693;SDS011;3384;42.628;23.380;2023-11-18T00:18:40;0.97;;;0.97;;
6693;SDS011;3384;42.628;23.380;2023-11-18T00:21:07;0.60;;;0.60;;
6693;SDS011;3384;42.628;23.380;2023-11-18T00:23:35;0.80;;;0.80;;
6693;SDS011;3384;42.628;23.380;2023-11-18T00:26:03;0.50;;;0.50;;
6693;SDS011;3384;42.628;23.380;2023-11-18T00:28:32;0.60;;;0.60;;
6693;SDS011;3384;42.628;23.380;2023-11-18T00:30:59;0.80;;;0.80;;
6693;SDS011;3384;42.628;23.380;2023-11-18T00:33:25;0.63;;;0.63;;
6693;SDS011;3384;42.628;23.380;2023-11-18T00:35:52;0.80;;;0.80;;
6693;SDS011;3384;42.628;23.380;2023-11-18T00:38:19;0.73;;;0.73;;
6693;SDS011;3384;42.628;23.380;2023-11-18T00:40:46;0.93;;;0.93;;
6693;SDS011;3384;42.628;23.380;2023-11-18T00:43:14;0.80;;;0.80;;
6693;SDS011;3384;42.628;23.380;2023-11-18T00:45:42;0.80;;;0.80;;
6693;SDS011;3384;42.628;23.380;2023-11-18T00:48:09;0.70;;;0.70;;
6693;SDS011;3384;42.628;23.380;2023-11-18T00:50:38;0.60;;;0.60;;
6693;SDS011;3384;42.628;23.380;2023-11-18T00:53:06;0.77;;;0.77;;
6693;SDS011;3384;42.628;23.380;2023-11-18T00:55:32;0.90;;;0.90;;
6693;SDS011;3384;42.628;23.380;2023-11-18T00:57:59;0.93;;;0.93;;
6693;SDS011;3384;42.628;23.380;2023-11-18T01:00:28;1.10;;;1.10;;
6693;SDS011;3384;42.628;23.380;2023-11-18T01:02:55;0.80;;;0.80;;
6693;SDS011;3384;42.628;23.380;2023-11-18T01:05:22;0.70;;;0.70;;
6693;SDS011;3384;42.628;23.380;2023-11-18T01:07:49;0.80;;;0.80;;
6693;SDS011;3384;42.628;23.380;2023-11-18T01:10:16;0.60;;;0.60;;
6693;SDS011;3384;42.628;23.380;2023-11-18T01:12:44;0.80;;;0.80;;
6693;SDS011;3384;42.628;23.380;2023-11-18T01:15:11;0.90;;;0.90;;
6693;SDS011;3384;42.628;23.380;2023-11-18T01:17:40;1.17;;;1.17;;
6693;SDS011;3384;42.628;23.380;2023-11-18T01:20:08;0.83;;;0.83;;
6693;SDS011;3384;42.628;23.380;2023-11-18T01:22:36;0.90;;;0.90;;
6693;SDS011;3384;42.628;23.380;2023-11-18T01:25:04;0.90;;;0.90;;
6693;SDS011;3384;42.628;23.380;2023-11-18T01:27:33;1.10;;;1.10;;
6693;SDS011;3384;42.628;23.380;2023-11-18T01:30:00;0.80;;;0.80;;
6693;SDS011;3384;42.628;23.380;2023-11-18T01:32:29;1.47;;;1.00;;
6693;SDS011;3384;42.628;23.380;2023-11-18T01:34:57;1.27;;;1.27;;
6693;SDS011;3384;42.628;23.380;2023-11-18T01:37:25;1.00;;;1.00;;
6693;SDS011;3384;42.628;23.380;2023-11-18T01:39:52;1.03;;;1.03;;
6693;SDS011;3384;42.628;23.380;2023-11-18T01:42:19;0.70;;;0.70;;
6693;SDS011;3384;42.628;23.380;2023-11-18T01:44:46;1.10;;;1.10;;
6693;SDS011;3384;42.628;23.380;2023-11-18T01:47:13;0.77;;;0.77;;
6693;SDS011;3384;42.628;23.380;2023-11-18T01:49:41;0.83;;;0.83;;
6693;SDS011;3384;42.628;23.380;2023-11-18T01:52:10;1.10;;;1.10;;
6693;SDS011;3384;42.628;23.380;2023-11-18T01:54:37;1.30;;;1.30;;
6693;SDS011;3384;42.628;23.380;2023-11-18T01:57:05;0.80;;;0.80;;
6693;SDS011;3384;42.628;23.380;2023-11-18T01:59:34;0.87;;;0.87;;
6693;SDS011;3384;42.628;23.380;2023-11-18T02:02:03;1.50;;;1.40;;
6693;SDS011;3384;42.628;23.380;2023-11-18T02:04:31;1.00;;;1.00;;
6693;SDS011;3384;42.628;23.380;2023-11-18T02:06:58;1.00;;;1.00;;
6693;SDS011;3384;42.628;23.380;2023-11-18T02:09:30;1.07;;;1.07;;
6693;SDS011;3384;42.628;23.380;2023-11-18T02:11:59;1.80;;;1.80;;
6693;SDS011;3384;42.628;23.380;2023-11-18T02:14:36;1.43;;;1.43;;
6693;SDS011;3384;42.628;23.380;2023-11-18T02:17:06;1.23;;;1.23;;
6693;SDS011;3384;42.628;23.380;2023-11-18T02:19:36;1.27;;;1.27;;
6693;SDS011;3384;42.628;23.380;2023-11-18T02:22:04;1.50;;;1.50;;
6693;SDS011;3384;42.628;23.380;2023-11-18T02:24:34;1.37;;;1.37;;
6693;SDS011;3384;42.628;23.380;2023-11-18T02:27:04;1.47;;;1.47;;
6693;SDS011;3384;42.628;23.380;2023-11-18T02:29:32;2.10;;;2.00;;
6693;SDS011;3384;42.628;23.380;2023-11-18T02:32:03;2.67;;;1.50;;
6693;SDS011;3384;42.628;23.380;2023-11-18T02:34:36;1.40;;;1.40;;
6693;SDS011;3384;42.628;23.380;2023-11-18T02:37:08;1.87;;;1.87;;
6693;SDS011;3384;42.628;23.380;2023-11-18T02:39:39;2.50;;;2.50;;
6693;SDS011;3384;42.628;23.380;2023-11-18T02:42:10;1.87;;;1.87;;
6693;SDS011;3384;42.628;23.380;2023-11-18T02:44:39;2.87;;;2.77;;
6693;SDS011;3384;42.628;23.380;2023-11-18T02:47:06;2.50;;;2.50;;
6693;SDS011;3384;42.628;23.380;2023-11-18T02:49:34;2.30;;;2.30;;
6693;SDS011;3384;42.628;23.380;2023-11-18T02:52:01;2.10;;;2.10;;
6693;SDS011;3384;42.628;23.380;2023-11-18T02:54:30;2.10;;;2.10;;
6693;SDS011;3384;42.628;23.380;2023-11-18T02:56:57;2.40;;;2.40;;
6693;SDS011;3384;42.628;23.380;2023-11-18T02:59:25;2.77;;;2.77;;
6693;SDS011;3384;42.628;23.380;2023-11-18T03:01:55;2.90;;;2.80;;
6693;SDS011;3384;42.628;23.380;2023-11-18T03:04:27;2.30;;;2.30;;
6693;SDS011;3384;42.628;23.380;2023-11-18T03:06:53;3.10;;;3.00;;
6693;SDS011;3384;42.628;23.380;2023-11-18T03:09:20;2.93;;;2.93;;
6693;SDS011;3384;42.628;23.380;2023-11-18T03:11:52;3.50;;;3.50;;
6693;SDS011;3384;42.628;23.380;2023-11-18T03:14:20;3.53;;;3.43;;
6693;SDS011;3384;42.628;23.380;2023-11-18T03:16:48;2.80;;;2.80;;
6693;SDS011;3384;42.628;23.380;2023-11-18T03:19:15;3.13;;;3.13;;
6693;SDS011;3384;42.628;23.380;2023-11-18T03:21:42;2.70;;;2.70;;
6693;SDS011;3384;42.628;23.380;2023-11-18T03:24:09;3.10;;;3.10;;
6693;SDS011;3384;42.628;23.380;2023-11-18T03:26:36;3.33;;;3.33;;
6693;SDS011;3384;42.628;23.380;2023-11-18T03:29:03;3.13;;;3.13;;
6693;SDS011;3384;42.628;23.380;2023-11-18T03:31:30;3.30;;;3.30;;
6693;SDS011;3384;42.628;23.380;2023-11-18T03:33:58;2.87;;;2.87;;
6693;SDS011;3384;42.628;23.380;2023-11-18T03:36:25;2.90;;;2.90;;
6693;SDS011;3384;42.628;23.380;2023-11-18T03:38:52;3.10;;;3.00;;
6693;SDS011;3384;42.628;23.380;2023-11-18T03:41:19;3.27;;;3.27;;
6693;SDS011;3384;42.628;23.380;2023-11-18T03:43:49;2.67;;;2.67;;
6693;SDS011;3384;42.628;23.380;2023-11-18T03:46:15;2.40;;;2.40;;
6693;SDS011;3384;42.628;23.380;2023-11-18T03:48:43;3.00;;;3.00;;
6693;SDS011;3384;42.628;23.380;2023-11-18T03:51:12;3.60;;;3.60;;
6693;SDS011;3384;42.628;23.380;2023-11-18T03:53:41;4.00;;;3.80;;
6693;SDS011;3384;42.628;23.380;2023-11-18T03:56:08;3.17;;;3.17;;
6693;SDS011;3384;42.628;23.380;2023-11-18T03:58:35;2.90;;;2.90;;
6693;SDS011;3384;42.628;23.380;2023-11-18T04:01:02;2.70;;;2.70;;
6693;SDS011;3384;42.628;23.380;2023-11-18T04:03:29;3.00;;;3.00;;
6693;SDS011;3384;42.628;23.380;2023-11-18T04:05:56;2.30;;;2.30;;
6693;SDS011;3384;42.628;23.380;2023-11-18T04:08:25;2.70;;;2.70;;
6693;SDS011;3384;42.628;23.380;2023-11-18T04:10:52;3.33;;;2.80;;
6693;SDS011;3384;42.628;23.380;2023-11-18T04:13:19;2.80;;;2.80;;
6693;SDS011;3384;42.628;23.380;2023-11-18T04:15:46;3.57;;;3.47;;
6693;SDS011;3384;42.628;23.380;2023-11-18T04:18:13;3.30;;;3.20;;
6693;SDS011;3384;42.628;23.380;2023-11-18T04:20:39;3.60;;;3.40;;
6693;SDS011;3384;42.628;23.380;2023-11-18T04:23:07;2.83;;;2.83;;
6693;SDS011;3384;42.628;23.380;2023-11-18T04:25:35;3.40;;;3.37;;
6693;SDS011;3384;42.628;23.380;2023-11-18T04:28:02;3.20;;;3.20;;
6693;SDS011;3384;42.628;23.380;2023-11-18T04:30:29;3.40;;;3.40;;
6693;SDS011;3384;42.628;23.380;2023-11-18T04:32:56;3.13;;;3.13;;
6693;SDS011;3384;42.628;23.380;2023-11-18T04:35:23;3.80;;;3.60;;
6693;SDS011;3384;42.628;23.380;2023-11-18T04:37:50;3.83;;;3.73;;
6693;SDS011;3384;42.628;23.380;2023-11-18T04:40:16;4.40;;;4.30;;
6693;SDS011;3384;42.628;23.380;2023-11-18T04:42:45;4.13;;;4.03;;
6693;SDS011;3384;42.628;23.380;2023-11-18T04:45:12;3.70;;;3.60;;
6693;SDS011;3384;42.628;23.380;2023-11-18T04:47:39;3.10;;;3.10;;
6693;SDS011;3384;42.628;23.380;2023-11-18T04:50:08;3.40;;;3.40;;
6693;SDS011;3384;42.628;23.380;2023-11-18T04:52:36;3.07;;;3.07;;
6693;SDS011;3384;42.628;23.380;2023-11-18T04:55:03;3.40;;;3.40;;
6693;SDS011;3384;42.628;23.380;2023-11-18T04:57:31;3.50;;;3.30;;
6693;SDS011;3384;42.628;23.380;2023-11-18T05:00:00;3.60;;;3.60;;
6693;SDS011;3384;42.628;23.380;2023-11-18T05:02:35;3.53;;;3.43;;
6693;SDS011;3384;42.628;23.380;2023-11-18T05:05:02;3.40;;;3.40;;
6693;SDS011;3384;42.628;23.380;2023-11-18T05:07:30;2.90;;;2.90;;
6693;SDS011;3384;42.628;23.380;2023-11-18T05:09:57;2.90;;;2.90;;
6693;SDS011;3384;42.628;23.380;2023-11-18T05:12:24;3.50;;;3.30;;
6693;SDS011;3384;42.628;23.380;2023-11-18T05:14:51;3.30;;;3.30;;
6693;SDS011;3384;42.628;23.380;2023-11-18T05:17:19;3.70;;;3.70;;
6693;SDS011;3384;42.628;23.380;2023-11-18T05:19:46;3.00;;;3.00;;
6693;SDS011;3384;42.628;23.380;2023-11-18T05:22:13;3.50;;;3.50;;
6693;SDS011;3384;42.628;23.380;2023-11-18T05:24:40;3.33;;;3.33;;
6693;SDS011;3384;42.628;23.380;2023-11-18T05:27:07;3.30;;;3.20;;
6693;SDS011;3384;42.628;23.380;2023-11-18T05:29:34;6.20;;;3.57;;
6693;SDS011;3384;42.628;23.380;2023-11-18T05:32:01;3.23;;;3.13;;
6693;SDS011;3384;42.628;23.380;2023-11-18T05:34:29;3.20;;;3.20;;
6693;SDS011;3384;42.628;23.380;2023-11-18T05:36:56;3.43;;;3.43;;
6693;SDS011;3384;42.628;23.380;2023-11-18T05:39:24;3.67;;;3.57;;
6693;SDS011;3384;42.628;23.380;2023-11-18T05:41:53;3.10;;;3.10;;
6693;SDS011;3384;42.628;23.380;2023-11-18T05:44:21;3.03;;;3.03;;
6693;SDS011;3384;42.628;23.380;2023-11-18T05:46:55;3.70;;;3.70;;
6693;SDS011;3384;42.628;23.380;2023-11-18T05:49:22;3.33;;;3.33;;
6693;SDS011;3384;42.628;23.380;2023-11-18T05:51:51;3.40;;;3.30;;
6693;SDS011;3384;42.628;23.380;2023-11-18T05:54:17;3.43;;;3.43;;
6693;SDS011;3384;42.628;23.380;2023-11-18T05:56:44;3.30;;;3.20;;
6693;SDS011;3384;42.628;23.380;2023-11-18T05:59:11;2.90;;;2.90;;
6693;SDS011;3384;42.628;23.380;2023-11-18T06:01:39;3.10;;;3.10;;
6693;SDS011;3384;42.628;23.380;2023-11-18T06:04:06;3.13;;;3.13;;
6693;SDS011;3384;42.628;23.380;2023-11-18T06:06:33;3.03;;;3.03;;
6693;SDS011;3384;42.628;23.380;2023-11-18T06:09:03;3.97;;;3.67;;
6693;SDS011;3384;42.628;23.380;2023-11-18T06:11:34;2.97;;;2.97;;
6693;SDS011;3384;42.628;23.380;2023-11-18T06:14:06;2.90;;;2.90;;
6693;SDS011;3384;42.628;23.380;2023-11-18T06:16:34;2.97;;;2.97;;
6693;SDS011;3384;42.628;23.380;2023-11-18T06:19:01;2.70;;;2.70;;
6693;SDS011;3384;42.628;23.380;2023-11-18T06:21:30;2.60;;;2.60;;
6693;SDS011;3384;42.628;23.380;2023-11-18T06:23:57;2.67;;;2.67;;
6693;SDS011;3384;42.628;23.380;2023-11-18T06:26:27;3.30;;;3.10;;
6693;SDS011;3384;42.628;23.380;2023-11-18T06:28:54;3.03;;;2.93;;
6693;SDS011;3384;42.628;23.380;2023-11-18T06:31:21;2.40;;;2.40;;
6693;SDS011;3384;42.628;23.380;2023-11-18T06:33:49;2.70;;;2.70;;
6693;SDS011;3384;42.628;23.380;2023-11-18T06:36:17;3.07;;;3.07;;
6693;SDS011;3384;42.628;23.380;2023-11-18T06:38:46;2.40;;;2.40;;
6693;SDS011;3384;42.628;23.380;2023-11-18T06:41:15;3.27;;;3.27;;
6693;SDS011;3384;42.628;23.380;2023-11-18T06:43:44;3.13;;;3.13;;
6693;SDS011;3384;42.628;23.380;2023-11-18T06:46:22;3.20;;;3.20;;
6693;SDS011;3384;42.628;23.380;2023-11-18T06:48:50;3.20;;;3.20;;
6693;SDS011;3384;42.628;23.380;2023-11-18T06:51:19;3.10;;;3.10;;
6693;SDS011;3384;42.628;23.380;2023-11-18T06:53:48;3.50;;;3.50;;
6693;SDS011;3384;42.628;23.380;2023-11-18T06:56:20;3.00;;;3.00;;
6693;SDS011;3384;42.628;23.380;2023-11-18T06:58:48;3.60;;;3.50;;
6693;SDS011;3384;42.628;23.380;2023-11-18T07:01:15;3.17;;;3.17;;
6693;SDS011;3384;42.628;23.380;2023-11-18T07:03:43;3.77;;;3.77;;
6693;SDS011;3384;42.628;23.380;2023-11-18T07:06:16;3.97;;;3.97;;
6693;SDS011;3384;42.628;23.380;2023-11-18T07:08:47;4.27;;;4.17;;
6693;SDS011;3384;42.628;23.380;2023-11-18T07:11:14;3.30;;;3.30;;
6693;SDS011;3384;42.628;23.380;2023-11-18T07:13:41;3.17;;;3.17;;
6693;SDS011;3384;42.628;23.380;2023-11-18T07:16:09;3.43;;;3.43;;
6693;SDS011;3384;42.628;23.380;2023-11-18T07:18:37;3.67;;;3.67;;
6693;SDS011;3384;42.628;23.380;2023-11-18T07:21:05;3.60;;;3.60;;
6693;SDS011;3384;42.628;23.380;2023-11-18T07:23:32;3.33;;;3.33;;
6693;SDS011;3384;42.628;23.380;2023-11-18T07:25:59;13.77;;;3.73;;
6693;SDS011;3384;42.628;23.380;2023-11-18T07:28:28;3.40;;;3.40;;
6693;SDS011;3384;42.628;23.380;2023-11-18T07:30:56;4.07;;;3.87;;
6693;SDS011;3384;42.628;23.380;2023-11-18T07:33:26;3.20;;;3.20;;
6693;SDS011;3384;42.628;23.380;2023-11-18T07:35:56;3.30;;;3.30;;
6693;SDS011;3384;42.628;23.380;2023-11-18T07:38:23;2.97;;;2.97;;
6693;SDS011;3384;42.628;23.380;2023-11-18T07:40:51;3.50;;;3.50;;
6693;SDS011;3384;42.628;23.380;2023-11-18T07:43:21;3.00;;;3.00;;
6693;SDS011;3384;42.628;23.380;2023-11-18T07:45:48;3.30;;;3.30;;
6693;SDS011;3384;42.628;23.380;2023-11-18T07:48:18;3.07;;;3.07;;
6693;SDS011;3384;42.628;23.380;2023-11-18T07:50:47;3.03;;;3.03;;
6693;SDS011;3384;42.628;23.380;2023-11-18T07:53:14;3.50;;;3.50;;
6693;SDS011;3384;42.628;23.380;2023-11-18T07:55:41;3.50;;;3.50;;
6693;SDS011;3384;42.628;23.380;2023-11-18T07:58:08;3.27;;;3.27;;
6693;SDS011;3384;42.628;23.380;2023-11-18T08:00:36;3.40;;;3.40;;
6693;SDS011;3384;42.628;23.380;2023-11-18T08:03:04;3.40;;;3.40;;
6693;SDS011;3384;42.628;23.380;2023-11-18T08:05:32;3.40;;;3.40;;
6693;SDS011;3384;42.628;23.380;2023-11-18T08:08:00;4.20;;;4.00;;
6693;SDS011;3384;42.628;23.380;2023-11-18T08:10:28;58.23;;;6.90;;
6693;SDS011;3384;42.628;23.380;2023-11-18T08:12:58;3.63;;;3.63;;
6693;SDS011;3384;42.628;23.380;2023-11-18T08:15:24;3.40;;;3.40;;
6693;SDS011;3384;42.628;23.380;2023-11-18T08:17:54;3.30;;;3.20;;
6693;SDS011;3384;42.628;23.380;2023-11-18T08:20:21;4.77;;;3.07;;
6693;SDS011;3384;42.628;23.380;2023-11-18T08:22:50;3.00;;;3.00;;
6693;SDS011;3384;42.628;23.380;2023-11-18T08:25:19;3.00;;;3.00;;
6693;SDS011;3384;42.628;23.380;2023-11-18T08:27:47;3.80;;;3.80;;
6693;SDS011;3384;42.628;23.380;2023-11-18T08:30:14;4.10;;;3.90;;
6693;SDS011;3384;42.628;23.380;2023-11-18T08:32:44;3.33;;;3.33;;
6693;SDS011;3384;42.628;23.380;2023-11-18T08:35:13;3.03;;;3.03;;
6693;SDS011;3384;42.628;23.380;2023-11-18T08:37:43;3.50;;;3.50;;
6693;SDS011;3384;42.628;23.380;2023-11-18T08:40:10;3.23;;;3.23;;
6693;SDS011;3384;42.628;23.380;2023-11-18T08:42:42;3.33;;;3.33;;
6693;SDS011;3384;42.628;23.380;2023-11-18T08:45:13;3.57;;;3.57;;
6693;SDS011;3384;42.628;23.380;2023-11-18T08:47:42;11.93;;;3.60;;
6693;SDS011;3384;42.628;23.380;2023-11-18T08:50:12;3.13;;;3.03;;
6693;SDS011;3384;42.628;23.380;2023-11-18T08:52:39;3.20;;;3.20;;
6693;SDS011;3384;42.628;23.380;2023-11-18T08:55:09;3.20;;;3.20;;
6693;SDS011;3384;42.628;23.380;2023-11-18T08:57:45;3.50;;;3.50;;
6693;SDS011;3384;42.628;23.380;2023-11-18T09:00:23;3.50;;;3.50;;
6693;SDS011;3384;42.628;23.380;2023-11-18T09:03:07;3.13;;;3.13;;
6693;SDS011;3384;42.628;23.380;2023-11-18T09:05:42;5.40;;;3.60;;
6693;SDS011;3384;42.628;23.380;2023-11-18T09:08:22;3.40;;;3.40;;
6693;SDS011;3384;42.628;23.380;2023-11-18T09:10:49;3.60;;;3.60;;
6693;SDS011;3384;42.628;23.380;2023-11-18T09:13:20;3.17;;;3.17;;
6693;SDS011;3384;42.628;23.380;2023-11-18T09:15:50;3.20;;;3.20;;
6693;SDS011;3384;42.628;23.380;2023-11-18T09:18:17;3.40;;;3.40;;
6693;SDS011;3384;42.628;23.380;2023-11-18T09:20:49;3.37;;;3.17;;
6693;SDS011;3384;42.628;23.380;2023-11-18T09:23:17;3.60;;;3.60;;
6693;SDS011;3384;42.628;23.380;2023-11-18T09:25:45;2.50;;;2.50;;
6693;SDS011;3384;42.628;23.380;2023-11-18T09:28:13;2.93;;;2.93;;
6693;SDS011;3384;42.628;23.380;2023-11-18T09:30:42;3.40;;;3.30;;
6693;SDS011;3384;42.628;23.380;2023-11-18T09:33:17;3.00;;;3.00;;
6693;SDS011;3384;42.628;23.380;2023-11-18T09:35:51;2.83;;;2.83;;
6693;SDS011;3384;42.628;23.380;2023-11-18T09:38:24;3.00;;;3.00;;
6693;SDS011;3384;42.628;23.380;2023-11-18T09:40:53;2.30;;;2.30;;
6693;SDS011;3384;42.628;23.380;2023-11-18T09:43:19;2.63;;;2.63;;
6693;SDS011;3384;42.628;23.380;2023-11-18T09:45:48;3.00;;;3.00;;
6693;SDS011;3384;42.628;23.380;2023-11-18T09:48:20;3.10;;;3.10;;
6693;SDS011;3384;42.628;23.380;2023-11-18T09:50:51;2.90;;;2.90;;
6693;SDS011;3384;42.628;23.380;2023-11-18T09:53:19;3.63;;;3.47;;
6693;SDS011;3384;42.628;23.380;2023-11-18T09:55:54;3.30;;;3.30;;
6693;SDS011;3384;42.628;23.380;2023-11-18T09:58:29;4.23;;;3.70;;
6693;SDS011;3384;42.628;23.380;2023-11-18T10:01:07;3.30;;;3.30;;
6693;SDS011;3384;42.628;23.380;2023-11-18T10:03:39;3.33;;;3.33;;
6693;SDS011;3384;42.628;23.380;2023-11-18T10:06:08;3.50;;;3.40;;
6693;SDS011;3384;42.628;23.380;2023-11-18T10:08:37;3.10;;;3.10;;
6693;SDS011;3384;42.628;23.380;2023-11-18T10:11:05;3.30;;;3.30;;
6693;SDS011;3384;42.628;23.380;2023-11-18T10:16:08;3.07;;;3.07;;
6693;SDS011;3384;42.628;23.380;2023-11-18T10:18:35;2.80;;;2.80;;
6693;SDS011;3384;42.628;23.380;2023-11-18T10:21:14;2.80;;;2.80;;
6693;SDS011;3384;42.628;23.380;2023-11-18T10:23:49;3.20;;;3.20;;
6693;SDS011;3384;42.628;23.380;2023-11-18T10:26:26;2.87;;;2.87;;
6693;SDS011;3384;42.628;23.380;2023-11-18T10:28:54;2.80;;;2.80;;
6693;SDS011;3384;42.628;23.380;2023-11-18T10:31:22;3.47;;;3.47;;
6693;SDS011;3384;42.628;23.380;2023-11-18T10:33:49;3.43;;;3.43;;
6693;SDS011;3384;42.628;23.380;2023-11-18T10:36:17;3.00;;;3.00;;
6693;SDS011;3384;42.628;23.380;2023-11-18T10:38:47;3.40;;;3.40;;
6693;SDS011;3384;42.628;23.380;2023-11-18T10:41:17;3.73;;;3.47;;
6693;SDS011;3384;42.628;23.380;2023-11-18T10:43:45;3.03;;;3.03;;
6693;SDS011;3384;42.628;23.380;2023-11-18T10:46:13;3.00;;;3.00;;
6693;SDS011;3384;42.628;23.380;2023-11-18T10:48:43;3.00;;;3.00;;
6693;SDS011;3384;42.628;23.380;2023-11-18T10:51:12;3.13;;;3.03;;
6693;SDS011;3384;42.628;23.380;2023-11-18T10:53:41;3.10;;;3.10;;
6693;SDS011;3384;42.628;23.380;2023-11-18T10:56:18;10.00;;;4.20;;
6693;SDS011;3384;42.628;23.380;2023-11-18T10:58:51;10.60;;;3.87;;
6693;SDS011;3384;42.628;23.380;2023-11-18T11:01:27;3.20;;;3.10;;
6693;SDS011;3384;42.628;23.380;2023-11-18T11:03:55;3.60;;;3.30;;
6693;SDS011;3384;42.628;23.380;2023-11-18T11:06:23;3.40;;;3.30;;
6693;SDS011;3384;42.628;23.380;2023-11-18T11:08:50;3.40;;;3.40;;
6693;SDS011;3384;42.628;23.380;2023-11-18T11:11:20;3.00;;;3.00;;
6693;SDS011;3384;42.628;23.380;2023-11-18T11:13:49;3.43;;;3.43;;
6693;SDS011;3384;42.628;23.380;2023-11-18T11:16:21;3.40;;;3.30;;
6693;SDS011;3384;42.628;23.380;2023-11-18T11:18:55;3.30;;;3.20;;
6693;SDS011;3384;42.628;23.380;2023-11-18T11:21:33;3.00;;;3.00;;
6693;SDS011;3384;42.628;23.380;2023-11-18T11:24:16;3.10;;;3.10;;
6693;SDS011;3384;42.628;23.380;2023-11-18T11:27:00;3.53;;;3.30;;
6693;SDS011;3384;42.628;23.380;2023-11-18T11:29:42;2.90;;;2.80;;
6693;SDS011;3384;42.628;23.380;2023-11-18T11:32:22;3.13;;;3.13;;
6693;SDS011;3384;42.628;23.380;2023-11-18T11:35:00;3.50;;;3.40;;
6693;SDS011;3384;42.628;23.380;2023-11-18T11:37:33;3.80;;;3.10;;
6693;SDS011;3384;42.628;23.380;2023-11-18T11:40:01;3.17;;;3.17;;
6693;SDS011;3384;42.628;23.380;2023-11-18T11:42:34;3.10;;;3.10;;
6693;SDS011;3384;42.628;23.380;2023-11-18T11:45:02;17.27;;;4.23;;
6693;SDS011;3384;42.628;23.380;2023-11-18T11:47:33;3.00;;;2.90;;
6693;SDS011;3384;42.628;23.380;2023-11-18T11:50:05;4.10;;;3.37;;
6693;SDS011;3384;42.628;23.380;2023-11-18T11:52:39;3.80;;;3.70;;
6693;SDS011;3384;42.628;23.380;2023-11-18T11:55:22;3.40;;;3.40;;
6693;SDS011;3384;42.628;23.380;2023-11-18T11:57:55;2.90;;;2.90;;
6693;SDS011;3384;42.628;23.380;2023-11-18T12:00:24;2.60;;;2.60;;
6693;SDS011;3384;42.628;23.380;2023-11-18T12:02:59;2.73;;;2.73;;
6693;SDS011;3384;42.628;23.380;2023-11-18T12:05:31;3.37;;;3.37;;
6693;SDS011;3384;42.628;23.380;2023-11-18T12:07:59;3.30;;;3.30;;
6693;SDS011;3384;42.628;23.380;2023-11-18T12:10:27;5.73;;;3.10;;
6693;SDS011;3384;42.628;23.380;2023-11-18T12:13:06;2.90;;;2.90;;
6693;SDS011;3384;42.628;23.380;2023-11-18T12:15:50;3.17;;;3.17;;
6693;SDS011;3384;42.628;23.380;2023-11-18T12:18:22;3.07;;;3.07;;
6693;SDS011;3384;42.628;23.380;2023-11-18T12:20:51;3.70;;;3.70;;
6693;SDS011;3384;42.628;23.380;2023-11-18T12:23:21;3.10;;;3.10;;
6693;SDS011;3384;42.628;23.380;2023-11-18T12:25:49;2.77;;;2.77;;
6693;SDS011;3384;42.628;23.380;2023-11-18T12:28:21;3.00;;;3.00;;
6693;SDS011;3384;42.628;23.380;2023-11-18T12:30:53;3.00;;;3.00;;
6693;SDS011;3384;42.628;23.380;2023-11-18T12:37:07;3.03;;;3.03;;
6693;SDS011;3384;42.628;23.380;2023-11-18T12:43:00;3.57;;;3.40;;
6693;SDS011;3384;42.628;23.380;2023-11-18T12:45:41;4.03;;;3.60;;
6693;SDS011;3384;42.628;23.380;2023-11-18T12:48:13;3.17;;;3.17;;
6693;SDS011;3384;42.628;23.380;2023-11-18T12:50:41;3.50;;;3.50;;
6693;SDS011;3384;42.628;23.380;2023-11-18T12:53:14;3.27;;;3.07;;
6693;SDS011;3384;42.628;23.380;2023-11-18T12:55:43;2.93;;;2.93;;
6693;SDS011;3384;42.628;23.380;2023-11-18T12:58:13;2.80;;;2.63;;
6693;SDS011;3384;42.628;23.380;2023-11-18T13:00:40;2.93;;;2.93;;
6693;SDS011;3384;42.628;23.380;2023-11-18T13:03:08;3.60;;;3.50;;
6693;SDS011;3384;42.628;23.380;2023-11-18T13:05:36;3.57;;;3.57;;
6693;SDS011;3384;42.628;23.380;2023-11-18T13:08:03;3.60;;;3.60;;
6693;SDS011;3384;42.628;23.380;2023-11-18T13:10:32;3.40;;;3.20;;
6693;SDS011;3384;42.628;23.380;2023-11-18T13:13:11;8.43;;;3.63;;
6693;SDS011;3384;42.628;23.380;2023-11-18T13:15:48;3.87;;;3.87;;
6693;SDS011;3384;42.628;23.380;2023-11-18T13:18:17;4.10;;;4.10;;
6693;SDS011;3384;42.628;23.380;2023-11-18T13:20:53;3.37;;;3.37;;
6693;SDS011;3384;42.628;23.380;2023-11-18T13:23:24;2.90;;;2.90;;
6693;SDS011;3384;42.628;23.380;2023-11-18T13:25:55;3.80;;;3.50;;
6693;SDS011;3384;42.628;23.380;2023-11-18T13:28:28;2.67;;;2.67;;
6693;SDS011;3384;42.628;23.380;2023-11-18T13:30:55;3.10;;;3.10;;
6693;SDS011;3384;42.628;23.380;2023-11-18T13:33:22;2.50;;;2.50;;
6693;SDS011;3384;42.628;23.380;2023-11-18T13:35:50;2.63;;;2.63;;
6693;SDS011;3384;42.628;23.380;2023-11-18T13:38:18;2.90;;;2.80;;
6693;SDS011;3384;42.628;23.380;2023-11-18T13:40:45;3.17;;;2.97;;
6693;SDS011;3384;42.628;23.380;2023-11-18T13:43:14;2.90;;;2.90;;
6693;SDS011;3384;42.628;23.380;2023-11-18T13:45:41;2.90;;;2.90;;
6693;SDS011;3384;42.628;23.380;2023-11-18T13:48:09;2.73;;;2.73;;
6693;SDS011;3384;42.628;23.380;2023-11-18T13:50:40;2.50;;;2.50;;
6693;SDS011;3384;42.628;23.380;2023-11-18T13:53:07;4.80;;;2.80;;
6693;SDS011;3384;42.628;23.380;2023-11-18T13:55:35;2.50;;;2.50;;
6693;SDS011;3384;42.628;23.380;2023-11-18T13:58:04;2.83;;;2.83;;
6693;SDS011;3384;42.628;23.380;2023-11-18T14:00:33;2.97;;;2.70;;
6693;SDS011;3384;42.628;23.380;2023-11-18T14:03:01;3.50;;;3.50;;
6693;SDS011;3384;42.628;23.380;2023-11-18T14:05:29;2.40;;;2.40;;
6693;SDS011;3384;42.628;23.380;2023-11-18T14:08:00;2.47;;;2.47;;
6693;SDS011;3384;42.628;23.380;2023-11-18T14:10:33;3.07;;;2.90;;
6693;SDS011;3384;42.628;23.380;2023-11-18T14:13:06;2.80;;;2.70;;
6693;SDS011;3384;42.628;23.380;2023-11-18T14:15:38;2.30;;;2.30;;
6693;SDS011;3384;42.628;23.380;2023-11-18T14:18:07;2.53;;;2.53;;
6693;SDS011;3384;42.628;23.380;2023-11-18T14:20:35;2.30;;;2.30;;
6693;SDS011;3384;42.628;23.380;2023-11-18T14:23:02;2.73;;;2.73;;
6693;SDS011;3384;42.628;23.380;2023-11-18T14:25:33;1.93;;;1.93;;
6693;SDS011;3384;42.628;23.380;2023-11-18T14:28:08;2.27;;;2.27;;
6693;SDS011;3384;42.628;23.380;2023-11-18T14:30:35;2.00;;;2.00;;
6693;SDS011;3384;42.628;23.380;2023-11-18T14:33:03;2.40;;;2.40;;
6693;SDS011;3384;42.628;23.380;2023-11-18T14:35:30;2.40;;;2.30;;
6693;SDS011;3384;42.628;23.380;2023-11-18T14:37:57;2.20;;;2.20;;
6693;SDS011;3384;42.628;23.380;2023-11-18T14:40:24;2.53;;;2.53;;
6693;SDS011;3384;42.628;23.380;2023-11-18T14:42:53;2.80;;;2.77;;
6693;SDS011;3384;42.628;23.380;2023-11-18T14:45:20;3.07;;;2.87;;
6693;SDS011;3384;42.628;23.380;2023-11-18T14:47:47;2.20;;;2.20;;
6693;SDS011;3384;42.628;23.380;2023-11-18T14:50:22;2.30;;;2.30;;
6693;SDS011;3384;42.628;23.380;2023-11-18T14:52:51;2.97;;;2.80;;
6693;SDS011;3384;42.628;23.380;2023-11-18T14:55:24;2.47;;;2.37;;
6693;SDS011;3384;42.628;23.380;2023-11-18T14:57:51;2.80;;;2.80;;
6693;SDS011;3384;42.628;23.380;2023-11-18T15:00:18;2.87;;;2.77;;
6693;SDS011;3384;42.628;23.380;2023-11-18T15:02:47;2.47;;;2.47;;
6693;SDS011;3384;42.628;23.380;2023-11-18T15:05:15;2.67;;;2.67;;
6693;SDS011;3384;42.628;23.380;2023-11-18T15:07:46;2.77;;;2.67;;
6693;SDS011;3384;42.628;23.380;2023-11-18T15:10:17;2.63;;;2.40;;
6693;SDS011;3384;42.628;23.380;2023-11-18T15:12:46;2.00;;;2.00;;
6693;SDS011;3384;42.628;23.380;2023-11-18T15:15:18;2.50;;;2.50;;
6693;SDS011;3384;42.628;23.380;2023-11-18T15:17:46;2.40;;;2.40;;
6693;SDS011;3384;42.628;23.380;2023-11-18T15:20:14;2.97;;;2.87;;
6693;SDS011;3384;42.628;23.380;2023-11-18T15:22:43;2.40;;;2.40;;